createdAt,value
2022-08-11T00:01:10.742Z,4.25
2022-08-11T00:03:55.997Z,4.43
2022-08-11T00:06:39.974Z,4.50
2022-08-11T00:09:15.157Z,4.50
2022-08-11T00:11:46.840Z,4.05
2022-08-11T00:14:23.303Z,3.97
2022-08-11T00:16:57.776Z,5.30
2022-08-11T00:20:12.273Z,5.03
2022-08-11T00:22:22.462Z,4.93
2022-08-11T00:24:54.969Z,4.88
2022-08-11T00:27:34.307Z,4.53
2022-08-11T00:30:01.815Z,4.20
2022-08-11T00:32:30.572Z,5.22
2022-08-11T00:35:51.480Z,4.63
2022-08-11T00:37:54.925Z,4.68
2022-08-11T00:40:44.888Z,4.38
2022-08-11T00:43:24.274Z,4.55
2022-08-11T00:46:11.412Z,4.55
2022-08-11T00:48:59.455Z,5.57
2022-08-11T00:52:04.805Z,4.35
2022-08-11T00:54:39.730Z,4.50
2022-08-11T00:57:37.780Z,4.07
2022-08-11T01:00:17.429Z,4.10
2022-08-11T01:03:09.114Z,4.75
2022-08-11T01:05:49.357Z,4.22
2022-08-11T01:08:53.882Z,4.60
2022-08-11T01:11:39.853Z,4.95
2022-08-11T01:14:55.379Z,4.90
2022-08-11T01:17:40.430Z,4.93
2022-08-11T01:20:47.388Z,4.30
2022-08-11T01:24:06.214Z,4.90
2022-08-11T01:26:51.822Z,4.90
2022-08-11T01:29:56.602Z,4.25
2022-08-11T01:32:43.426Z,5.38
2022-08-11T01:36:00.029Z,4.93
2022-08-11T01:38:35.945Z,5.13
2022-08-11T01:41:46.957Z,5.68
2022-08-11T01:44:49.118Z,5.32
2022-08-11T01:48:02.536Z,4.70
2022-08-11T01:50:54.373Z,5.35
2022-08-11T01:53:57.825Z,4.53
2022-08-11T01:56:57.011Z,4.72
2022-08-11T01:59:36.393Z,4.60
2022-08-11T02:02:21.289Z,4.80
2022-08-11T02:05:03.334Z,4.43
2022-08-11T02:07:56.582Z,4.65
2022-08-11T02:10:58.609Z,5.07
2022-08-11T02:14:01.978Z,4.43
2022-08-11T02:16:46.970Z,5.03
2022-08-11T02:19:35.468Z,4.70
2022-08-11T02:22:27.984Z,5.13
2022-08-11T02:25:04.351Z,4.82
2022-08-11T02:27:56.229Z,4.70
2022-08-11T02:30:27.450Z,4.43
2022-08-11T02:33:30.464Z,4.15
2022-08-11T02:36:20.559Z,4.00
2022-08-11T02:39:20.792Z,4.38
2022-08-11T02:42:31.627Z,3.78
2022-08-11T02:45:27.594Z,3.75
2022-08-11T02:48:33.227Z,4.13
2022-08-11T02:51:21.350Z,3.65
2022-08-11T02:53:58.280Z,3.88
2022-08-11T02:57:04.325Z,4.40
2022-08-11T02:59:50.701Z,3.63
2022-08-11T03:02:32.544Z,4.32
2022-08-11T03:05:17.062Z,3.63
2022-08-11T03:08:09.012Z,4.20
2022-08-11T03:11:15.650Z,4.45
2022-08-11T03:14:24.135Z,4.70
2022-08-11T03:17:24.074Z,4.22
2022-08-11T03:20:41.265Z,4.32
2022-08-11T03:23:35.121Z,5.40
2022-08-11T03:26:26.632Z,4.65
2022-08-11T03:29:24.893Z,4.47
2022-08-11T03:33:07.527Z,4.40
2022-08-11T03:35:40.335Z,4.80
2022-08-11T03:38:14.860Z,5.07
2022-08-11T03:41:54.726Z,4.72
2022-08-11T03:44:17.833Z,4.78
2022-08-11T03:46:53.863Z,5.50
2022-08-11T03:49:34.222Z,5.30
2022-08-11T03:52:28.943Z,5.55
2022-08-11T03:55:22.172Z,5.10
2022-08-11T03:58:22.644Z,5.95
2022-08-11T04:01:35.192Z,5.65
2022-08-11T04:04:23.669Z,5.10
2022-08-11T04:06:59.711Z,5.20
2022-08-11T04:10:03.004Z,4.97
2022-08-11T04:12:59.385Z,5.30
2022-08-11T04:18:39.338Z,5.50
2022-08-11T04:21:36.999Z,5.15
2022-08-11T04:24:36.213Z,4.70
2022-08-11T04:27:21.122Z,4.88
2022-08-11T04:30:05.929Z,4.75
2022-08-11T04:33:29.855Z,4.40
2022-08-11T04:36:51.798Z,5.00
2022-08-11T04:40:00.093Z,4.65
2022-08-11T04:43:13.857Z,4.63
2022-08-11T04:46:08.589Z,5.38
2022-08-11T04:49:03.179Z,5.20
2022-08-11T04:52:37.585Z,4.57
2022-08-11T04:56:01.336Z,4.93
2022-08-11T04:58:55.789Z,5.05
2022-08-11T05:01:44.003Z,5.18
2022-08-11T05:04:59.942Z,5.00
2022-08-11T05:07:57.792Z,5.60
2022-08-11T05:11:03.559Z,5.35
2022-08-11T05:13:53.323Z,5.20
2022-08-11T05:16:46.199Z,5.15
2022-08-11T05:19:38.137Z,4.90
2022-08-11T05:22:27.301Z,4.72
2022-08-11T05:26:45.212Z,4.57
2022-08-11T05:28:49.174Z,4.90
2022-08-11T05:31:36.818Z,5.03
2022-08-11T05:34:30.476Z,5.13
2022-08-11T05:37:26.308Z,5.40
2022-08-11T05:40:18.894Z,5.65
2022-08-11T05:43:19.396Z,5.05
2022-08-11T05:46:20.890Z,5.47
2022-08-11T05:49:09.136Z,4.90
2022-08-11T05:52:05.012Z,5.13
2022-08-11T05:55:00.212Z,5.13
2022-08-11T05:57:49.847Z,5.53
2022-08-11T06:00:19.899Z,5.53
2022-08-11T06:02:55.299Z,5.90
2022-08-11T06:05:43.328Z,5.30
2022-08-11T06:08:13.450Z,6.10
2022-08-11T06:10:43.020Z,6.22
2022-08-11T06:13:10.942Z,6.03
2022-08-11T06:15:46.323Z,6.10
2022-08-11T06:20:54.943Z,5.63
2022-08-11T06:23:25.116Z,5.95
2022-08-11T06:25:56.216Z,4.78
2022-08-11T06:28:35.824Z,6.00
2022-08-11T06:31:12.379Z,6.20
2022-08-11T06:34:27.227Z,6.57
2022-08-11T06:37:04.896Z,6.35
2022-08-11T06:39:34.916Z,6.22
2022-08-11T06:42:16.943Z,6.47
2022-08-11T06:45:09.949Z,5.78
2022-08-11T06:47:41.451Z,6.93
2022-08-11T06:50:27.392Z,5.97
2022-08-11T06:55:56.548Z,6.85
2022-08-11T06:58:51.087Z,6.80
2022-08-11T07:01:49.416Z,6.38
2022-08-11T07:04:30.347Z,6.70
2022-08-11T07:07:50.560Z,6.88
2022-08-11T07:11:05.993Z,6.30
2022-08-11T07:13:55.390Z,6.50
2022-08-11T07:16:28.655Z,6.32
2022-08-11T07:19:23.973Z,6.13
2022-08-11T07:22:11.562Z,5.83
2022-08-11T07:25:02.625Z,6.90
2022-08-11T07:28:01.007Z,6.90
2022-08-11T07:30:28.269Z,7.30
2022-08-11T07:32:59.765Z,6.20
2022-08-11T07:35:43.872Z,7.50
2022-08-11T07:38:25.330Z,7.47
2022-08-11T07:40:52.707Z,6.50
2022-08-11T07:43:19.904Z,8.48
2022-08-11T07:46:06.207Z,8.35
2022-08-11T07:48:53.092Z,7.15
2022-08-11T07:51:39.706Z,7.32
2022-08-11T07:54:07.580Z,7.82
2022-08-11T07:57:07.356Z,7.53
2022-08-11T08:00:00.046Z,7.88
2022-08-11T08:02:58.709Z,6.70
2022-08-11T08:05:44.783Z,7.03
2022-08-11T08:08:34.054Z,8.07
2022-08-11T08:11:23.961Z,6.72
2022-08-11T08:14:14.080Z,7.35
2022-08-11T08:17:00.920Z,7.43
2022-08-11T08:19:28.395Z,8.40
2022-08-11T08:21:55.722Z,7.80
2022-08-11T08:24:41.953Z,8.05
2022-08-11T08:27:12.780Z,7.88
2022-08-11T08:29:59.244Z,7.10
2022-08-11T08:32:27.969Z,6.40
2022-08-11T08:34:57.016Z,7.13
2022-08-11T08:37:46.904Z,7.18
2022-08-11T08:40:14.264Z,7.13
2022-08-11T08:42:51.473Z,6.93
2022-08-11T08:45:19.054Z,7.30
2022-08-11T08:47:53.332Z,8.15
2022-08-11T08:50:27.585Z,8.17
2022-08-11T08:53:05.711Z,8.00
2022-08-11T08:55:33.736Z,7.47
2022-08-11T08:58:01.751Z,8.07
2022-08-11T09:00:41.072Z,7.95
2022-08-11T09:03:36.630Z,7.82
2022-08-11T09:05:56.411Z,6.80
2022-08-11T09:08:24.822Z,7.18
2022-08-11T09:11:14.019Z,7.32
2022-08-11T09:13:44.493Z,6.95
2022-08-11T09:16:12.097Z,6.95
2022-08-11T09:18:41.554Z,6.65
2022-08-11T09:21:08.736Z,6.47
2022-08-11T09:24:16.874Z,6.40
2022-08-11T09:27:01.043Z,6.35
2022-08-11T09:29:29.362Z,6.18
2022-08-11T09:31:58.005Z,6.22
2022-08-11T09:34:29.145Z,5.28
2022-08-11T09:37:28.397Z,6.03
2022-08-11T09:40:27.265Z,5.85
2022-08-11T09:43:16.857Z,5.35
2022-08-11T09:45:52.317Z,5.10
2022-08-11T09:48:24.160Z,4.82
2022-08-11T09:50:55.017Z,4.55
2022-08-11T09:53:35.231Z,4.25
2022-08-11T09:56:26.974Z,4.20
2022-08-11T09:58:54.026Z,4.65
2022-08-11T10:01:29.348Z,4.78
2022-08-11T10:04:04.025Z,4.68
2022-08-11T10:06:54.031Z,5.18
2022-08-11T10:09:24.198Z,5.43
2022-08-11T10:11:58.584Z,5.22
2022-08-11T10:14:46.188Z,5.93
2022-08-11T10:17:14.631Z,6.40
2022-08-11T10:19:43.319Z,6.28
2022-08-11T10:22:32.879Z,6.60
2022-08-11T10:25:20.496Z,6.70
2022-08-11T10:28:29.087Z,5.95
2022-08-11T10:31:13.979Z,7.60
2022-08-11T10:34:00.475Z,6.60
2022-08-11T10:36:43.015Z,6.95
2022-08-11T10:39:15.493Z,7.57
2022-08-11T10:42:08.873Z,8.05
2022-08-11T10:44:40.047Z,8.40
2022-08-11T10:47:26.877Z,8.95
2022-08-11T10:50:13.288Z,8.85
2022-08-11T10:52:59.541Z,9.38
2022-08-11T10:55:46.280Z,8.43
2022-08-11T10:58:32.283Z,10.52
2022-08-11T11:01:00.727Z,10.05
2022-08-11T11:03:30.337Z,8.85
2022-08-11T11:06:28.562Z,8.90
2022-08-11T11:09:11.134Z,10.18
2022-08-11T11:12:01.443Z,9.35
2022-08-11T11:14:58.242Z,9.63
2022-08-11T11:17:54.268Z,9.80
2022-08-11T11:20:37.022Z,10.27
2022-08-11T11:23:09.206Z,10.47
2022-08-11T11:26:07.067Z,9.15
2022-08-11T11:29:02.275Z,8.55
2022-08-11T11:32:06.877Z,9.77
2022-08-11T11:34:59.463Z,10.40
2022-08-11T11:37:29.475Z,9.27
2022-08-11T11:39:57.794Z,10.07
2022-08-11T11:42:26.036Z,8.60
2022-08-11T11:44:56.060Z,9.40
2022-08-11T11:47:24.836Z,9.27
2022-08-11T11:49:53.124Z,8.90
2022-08-11T11:52:22.182Z,9.60
2022-08-11T11:54:53.541Z,9.77
2022-08-11T11:57:40.618Z,8.35
2022-08-11T12:00:33.301Z,11.45
2022-08-11T12:03:06.963Z,10.73
2022-08-11T12:05:36.240Z,12.23
2022-08-11T12:08:15.773Z,10.82
2022-08-11T12:10:47.501Z,9.45
2022-08-11T12:13:35.058Z,11.40
2022-08-11T12:16:31.875Z,12.27
2022-08-11T12:18:55.151Z,12.98
2022-08-11T12:21:24.070Z,11.57
2022-08-11T12:24:09.794Z,11.65
2022-08-11T12:29:30.332Z,12.80
2022-08-11T12:31:58.745Z,11.60
2022-08-11T12:34:28.369Z,11.07
2022-08-11T12:36:59.585Z,12.35
2022-08-11T12:40:16.373Z,10.80
2022-08-11T12:42:58.370Z,11.52
2022-08-11T12:45:27.841Z,12.48
2022-08-11T12:48:57.435Z,12.43
2022-08-11T12:52:11.466Z,9.88
2022-08-11T12:54:57.780Z,10.40
2022-08-11T12:57:43.222Z,10.52
2022-08-11T13:00:29.219Z,9.55
2022-08-11T13:03:15.453Z,11.35
2022-08-11T13:05:45.086Z,10.82
2022-08-11T13:08:16.557Z,10.52
2022-08-11T13:11:03.975Z,9.75
2022-08-11T13:13:55.128Z,10.88
2022-08-11T13:16:20.717Z,8.30
2022-08-11T13:18:48.544Z,7.88
2022-08-11T13:21:20.663Z,9.45
2022-08-11T13:24:01.819Z,9.40
2022-08-11T13:26:48.511Z,8.07
2022-08-11T13:29:26.321Z,8.55
2022-08-11T13:31:57.663Z,7.88
2022-08-11T13:34:27.071Z,8.07
2022-08-11T13:36:56.959Z,7.60
2022-08-11T13:39:26.983Z,7.70
2022-08-11T13:41:56.779Z,7.15
2022-08-11T13:44:29.938Z,7.45
2022-08-11T13:47:04.306Z,6.63
2022-08-11T13:49:33.473Z,6.80
2022-08-11T13:52:01.093Z,7.40
2022-08-11T13:54:31.959Z,6.13
2022-08-11T13:57:08.030Z,6.38
2022-08-11T13:59:43.728Z,6.25
2022-08-11T14:02:29.581Z,6.07
2022-08-11T14:05:13.260Z,6.75
2022-08-11T14:07:49.876Z,6.88
2022-08-11T14:10:19.365Z,5.15
2022-08-11T14:13:26.217Z,5.75
2022-08-11T14:18:28.768Z,5.57
2022-08-11T14:21:17.311Z,5.18
2022-08-11T14:23:55.863Z,4.93
2022-08-11T14:26:29.557Z,5.45
2022-08-11T14:29:02.729Z,5.43
2022-08-11T14:31:32.564Z,5.15
2022-08-11T14:34:10.342Z,4.13
2022-08-11T14:36:39.855Z,4.90
2022-08-11T14:39:12.784Z,4.35
2022-08-11T14:42:10.924Z,4.72
2022-08-11T14:45:03.770Z,4.32
2022-08-11T14:47:37.675Z,4.32
2022-08-11T14:50:09.969Z,4.05
2022-08-11T14:52:50.190Z,3.97
2022-08-11T14:55:37.421Z,4.38
2022-08-11T14:58:05.224Z,3.75
2022-08-11T15:00:34.817Z,4.35
2022-08-11T15:03:11.301Z,4.40
2022-08-11T15:05:57.294Z,3.70
2022-08-11T15:08:47.828Z,3.65
2022-08-11T15:11:36.073Z,3.47
2022-08-11T15:14:06.830Z,4.47
2022-08-11T15:16:53.218Z,3.65
2022-08-11T15:19:23.592Z,3.72
2022-08-11T15:22:09.632Z,3.85
2022-08-11T15:24:37.407Z,3.70
2022-08-11T15:27:38.278Z,3.55
2022-08-11T15:30:33.882Z,3.45
2022-08-11T15:33:27.894Z,3.40
2022-08-11T15:36:15.272Z,3.42
2022-08-11T15:38:55.206Z,3.42
2022-08-11T15:41:54.305Z,4.15
2022-08-11T15:45:04.113Z,3.47
2022-08-11T15:47:39.306Z,3.38
2022-08-11T15:50:19.816Z,2.97
2022-08-11T15:52:53.758Z,3.22
2022-08-11T15:55:23.532Z,3.10
2022-08-11T15:58:13.722Z,3.88
2022-08-11T16:01:04.251Z,3.40
2022-08-11T16:04:07.797Z,3.57
2022-08-11T16:06:52.905Z,3.45
2022-08-11T16:09:25.869Z,3.50
2022-08-11T16:11:59.321Z,3.70
2022-08-11T16:14:46.958Z,5.50
2022-08-11T16:17:17.480Z,3.70
2022-08-11T16:19:48.879Z,3.53
2022-08-11T16:22:33.112Z,3.35
2022-08-11T16:27:03.156Z,2.80
2022-08-11T16:28:07.997Z,3.55
2022-08-11T16:30:37.558Z,3.50
2022-08-11T16:33:50.468Z,3.50
2022-08-11T16:36:12.981Z,3.28
2022-08-11T16:38:41.593Z,3.40
2022-08-11T16:41:12.375Z,3.42
2022-08-11T16:44:04.941Z,4.07
2022-08-11T16:46:51.687Z,3.20
2022-08-11T16:49:36.190Z,3.72
2022-08-11T16:52:08.059Z,3.88
2022-08-11T16:54:35.560Z,3.75
2022-08-11T16:57:34.148Z,3.70
2022-08-11T17:00:07.745Z,3.83
2022-08-11T17:03:00.258Z,3.75
2022-08-11T17:05:53.764Z,3.90
2022-08-11T17:08:54.252Z,3.92
2022-08-11T17:11:47.589Z,4.45
2022-08-11T17:14:35.691Z,3.83
2022-08-11T17:17:12.664Z,4.13
2022-08-11T17:20:42.858Z,3.47
2022-08-11T17:22:52.984Z,4.10
2022-08-11T17:25:22.199Z,3.97
2022-08-11T17:27:50.773Z,4.15
2022-08-11T17:30:18.419Z,3.88
2022-08-11T17:33:09.302Z,4.20
2022-08-11T17:35:41.118Z,3.85
2022-08-11T17:38:14.457Z,3.30
2022-08-11T17:41:22.795Z,4.47
2022-08-11T17:44:11.792Z,3.70
2022-08-11T17:47:03.634Z,3.90
2022-08-11T17:49:37.570Z,4.07
2022-08-11T17:52:24.782Z,3.30
2022-08-11T17:55:13.434Z,3.72
2022-08-11T17:58:00.137Z,3.80
2022-08-11T18:00:27.809Z,5.03
2022-08-11T18:03:14.718Z,4.20
2022-08-11T18:05:44.460Z,4.15
2022-08-11T18:08:32.528Z,4.40
2022-08-11T18:12:00.063Z,4.20
2022-08-11T18:14:29.067Z,4.22
2022-08-11T18:17:15.011Z,4.28
2022-08-11T18:20:00.624Z,4.40
2022-08-11T18:22:51.351Z,4.53
2022-08-11T18:25:45.382Z,3.97
2022-08-11T18:28:33.755Z,4.55
2022-08-11T18:31:21.596Z,3.97
2022-08-11T18:34:12.519Z,4.25
2022-08-11T18:37:03.977Z,4.43
2022-08-11T18:39:54.706Z,4.60
2022-08-11T18:42:43.451Z,4.15
2022-08-11T18:45:38.443Z,4.30
2022-08-11T18:48:37.150Z,4.38
2022-08-11T18:51:30.982Z,4.10
2022-08-11T18:54:28.133Z,4.72
2022-08-11T18:57:16.654Z,4.03
2022-08-11T19:00:04.921Z,4.30
2022-08-11T19:02:53.907Z,4.50
2022-08-11T19:06:06.002Z,5.00
2022-08-11T19:08:51.348Z,4.65
2022-08-11T19:11:42.464Z,4.50
2022-08-11T19:14:31.439Z,4.45
2022-08-11T19:17:43.823Z,5.03
2022-08-11T19:20:30.191Z,4.18
2022-08-11T19:23:17.712Z,3.70
2022-08-11T19:26:05.532Z,4.15
2022-08-11T19:28:53.908Z,4.50
2022-08-11T19:31:44.370Z,4.20
2022-08-11T19:34:34.954Z,4.13
2022-08-11T19:37:25.073Z,4.35
2022-08-11T19:40:20.746Z,3.92
2022-08-11T19:43:14.880Z,4.28
2022-08-11T19:46:15.798Z,4.20
2022-08-11T19:49:05.226Z,3.97
2022-08-11T19:51:54.221Z,4.45
2022-08-11T19:54:47.698Z,4.63
2022-08-11T19:57:39.709Z,4.60
2022-08-11T20:00:32.494Z,4.10
2022-08-11T20:03:20.940Z,4.43
2022-08-11T20:06:09.311Z,3.95
2022-08-11T20:09:00.142Z,4.35
2022-08-11T20:11:51.096Z,4.00
2022-08-11T20:14:39.559Z,4.85
2022-08-11T20:17:31.221Z,4.43
2022-08-11T20:20:18.193Z,4.20
2022-08-11T20:23:05.307Z,4.20
2022-08-11T20:25:55.805Z,4.45
2022-08-11T20:28:50.562Z,4.00
2022-08-11T20:31:39.641Z,4.43
2022-08-11T20:34:28.530Z,4.40
2022-08-11T20:37:15.398Z,3.90
2022-08-11T20:40:02.237Z,3.70
2022-08-11T20:42:49.109Z,3.90
2022-08-11T20:45:36.276Z,3.55
2022-08-11T20:48:41.239Z,3.40
2022-08-11T20:51:27.853Z,3.83
2022-08-11T20:54:38.270Z,3.50
2022-08-11T20:57:58.722Z,3.50
2022-08-11T21:00:39.397Z,3.58
2022-08-11T21:03:35.451Z,3.30
2022-08-11T21:06:31.333Z,3.38
2022-08-11T21:09:20.876Z,3.47
2022-08-11T21:12:13.490Z,3.97
2022-08-11T21:15:00.026Z,4.35
2022-08-11T21:18:00.061Z,3.80
2022-08-11T21:20:48.102Z,4.20
2022-08-11T21:23:36.946Z,3.72
2022-08-11T21:26:28.371Z,3.55
2022-08-11T21:29:16.808Z,3.35
2022-08-11T21:32:03.398Z,3.35
2022-08-11T21:34:50.948Z,3.30
2022-08-11T21:37:38.111Z,3.50
2022-08-11T21:40:25.825Z,3.42
2022-08-11T21:43:12.755Z,4.03
2022-08-11T21:45:59.434Z,3.90
2022-08-11T21:48:46.749Z,3.47
2022-08-11T21:51:32.223Z,3.75
2022-08-11T21:54:20.200Z,3.80
2022-08-11T21:57:06.805Z,3.95
2022-08-11T22:00:11.552Z,3.75
2022-08-11T22:02:58.449Z,4.00
2022-08-11T22:05:45.910Z,3.65
2022-08-11T22:08:32.773Z,3.63
2022-08-11T22:11:32.004Z,4.60
2022-08-11T22:14:22.469Z,4.32
2022-08-11T22:17:08.491Z,4.57
2022-08-11T22:19:56.137Z,4.07
2022-08-11T22:22:52.005Z,4.53
2022-08-11T22:25:46.575Z,4.10
2022-08-11T22:28:37.872Z,4.47
2022-08-11T22:31:25.284Z,3.65
2022-08-11T22:34:11.323Z,3.90
2022-08-11T22:36:57.716Z,3.63
2022-08-11T22:39:44.892Z,3.47
2022-08-11T22:42:47.725Z,3.88
2022-08-11T22:45:33.718Z,3.67
2022-08-11T22:48:20.768Z,3.83
2022-08-11T22:51:06.693Z,3.60
2022-08-11T22:53:58.483Z,3.80
2022-08-11T22:56:49.716Z,3.45
2022-08-11T22:59:37.182Z,3.80
2022-08-11T23:02:25.096Z,4.25
2022-08-11T23:05:11.908Z,3.35
2022-08-11T23:07:58.346Z,3.72
2022-08-11T23:10:45.252Z,3.90
2022-08-11T23:13:31.836Z,3.92
2022-08-11T23:16:18.379Z,3.85
2022-08-11T23:19:04.498Z,3.83
2022-08-11T23:21:52.607Z,3.60
2022-08-11T23:24:39.587Z,4.07
2022-08-11T23:27:27.531Z,3.63
2022-08-11T23:30:19.326Z,3.45
2022-08-11T23:33:07.947Z,4.00
2022-08-11T23:36:01.067Z,4.60
2022-08-11T23:38:50.996Z,4.85
2022-08-11T23:41:37.432Z,5.05
2022-08-11T23:44:24.920Z,5.57
2022-08-11T23:47:13.603Z,5.20
2022-08-11T23:50:00.266Z,5.45
2022-08-11T23:52:47.930Z,5.10
2022-08-11T23:55:33.337Z,5.40
2022-08-11T23:58:19.576Z,5.00
